Time;durP1;ratioP1;P1;durP2;ratioP2;P2;SDS_P1;SDS_P2;PMS_P1;PMS_P2;Temp;Humidity;BMP_temperature;BMP_pressure;BME280_temperature;BME280_humidity;BME280_pressure;Samples;Min_cycle;Max_cycle;Signal;HPM_P1;HPM_P2
2022/01/08 00:00:54;;;;;;;;;;;;;;;;;;5136050;27;20287;-75
2022/01/08 00:03:19;;;;;;;;;;;;;;;;;;5118371;27;20018;-75
2022/01/08 00:05:44;;;;;;;;;;;;;;;;;;5101283;27;19915;-72
2022/01/08 00:08:10;;;;;;;;;;;;;;;;;;5136800;27;19915;-74
2022/01/08 00:10:35;;;;;;;;;;;;;;;;;;5136372;27;19926;-73
2022/01/08 00:13:04;;;;;;;;;;;;;;;;;;5136310;27;19916;-74
2022/01/08 00:15:30;;;;;;;;;;;;;;;;;;5136573;27;20015;-75
2022/01/08 00:17:56;;;;;;;;;;;;;;;;;;5136625;27;19962;-75
2022/01/08 00:20:21;;;;;;;;;;;;;;;;;;5136247;27;19967;-73
2022/01/08 00:22:50;;;;;;;;;;;;;;;;;;5136427;27;19972;-74
2022/01/08 00:25:15;;;;;;;;;;;;;;;;;;5136221;27;19915;-75
2022/01/08 00:27:41;;;;;;;;;;;;;;;;;;5136087;27;19942;-75
2022/01/08 00:30:06;;;;;;;;;;;;;;;;;;5136265;27;19946;-74
2022/01/08 00:32:32;;;;;;;;;;;;;;;;;;5136346;27;19922;-75
2022/01/08 00:34:57;;;;;;;;;;;;;;;;;;5136288;27;19923;-73
2022/01/08 00:37:22;;;;;;;;;;;;;;;;;;5136083;27;19920;-74
2022/01/08 00:39:48;;;;;;;;;;;;;;;;;;5117958;27;19960;-75
2022/01/08 00:42:14;;;;;;;;;;;;;;;;;;5136180;27;19916;-75
2022/01/08 00:44:39;;;;;;;;;;;;;;;;;;5136172;27;19923;-75
2022/01/08 00:47:05;;;;;;;;;;;;;;;;;;5135942;27;20289;-75
2022/01/08 00:49:30;;;;;;;;;;;;;;;;;;5117517;27;19920;-75
2022/01/08 00:51:55;;;;;;;;;;;;;;;;;;5136033;27;20364;-75
2022/01/08 00:54:21;;;;;;;;;;;;;;;;;;5135863;27;20021;-75
2022/01/08 00:56:46;;;;;;;;;;;;;;;;;;5135630;27;19920;-75
2022/01/08 00:59:13;;;;;;;;;;;;;;;;;;5135785;27;19938;-75
2022/01/08 01:01:38;;;;;;;;;;;;;;;;;;5135352;27;19966;-75
2022/01/08 01:04:04;;;;;;;;;;;;;;;;;;5135244;27;20280;-75
2022/01/08 01:06:29;;;;;;;;;;;;;;;;;;5135447;27;20258;-75
2022/01/08 01:08:55;;;;;;;;;;;;;;;;;;5135689;27;19964;-75
2022/01/08 01:11:20;;;;;;;;;;;;;;;;;;5100175;27;20006;-75
2022/01/08 01:13:45;;;;;;;;;;;;;;;;;;5135773;27;19917;-75
2022/01/08 01:16:10;;;;;;;;;;;;;;;;;;5117071;27;19916;-75
2022/01/08 01:18:37;;;;;;;;;;;;;;;;;;5116925;27;19926;-75
2022/01/08 01:21:02;;;;;;;;;;;;;;;;;;5135434;27;19915;-75
2022/01/08 01:23:36;;;;;;;;;;;;;;;;;;5117123;27;19915;-74
2022/01/08 01:26:05;;;;;;;;;;;;;;;;;;5135223;27;19968;-75
2022/01/08 01:28:40;;;;;;;;;;;;;;;;;;5135129;27;19921;-75
2022/01/08 01:49:06;;;;;;;;;;;;;;;;;;5114051;28;20022;-75
2022/01/08 01:51:33;;;;;;;;;;;;;;;;;;5113318;28;21430;-73
2022/01/08 01:53:58;;;;;;;;;;;;;;;;;;5113946;28;19922;-73
2022/01/08 01:56:23;;;;;;;;;;;;;;;;;;5114091;28;19916;-74
2022/01/08 01:58:50;;;;;;;;;;;;;;;;;;5114225;28;19915;-73
2022/01/08 02:01:15;;;;;;;;;;;;;;;;;;5115212;28;19916;-74
2022/01/08 02:03:41;;;;;;;;;;;;;;;;;;5116584;28;20353;-74
2022/01/08 02:06:07;;;;;;;;;;;;;;;;;;5134929;28;19920;-74
2022/01/08 02:08:32;;;;;;;;;;;;;;;;;;5133986;27;19915;-74
2022/01/08 02:10:58;;;;;;;;;;;;;;;;;;5134451;28;20009;-74
2022/01/08 02:13:27;;;;;;;;;;;;;;;;;;5134826;28;19965;-74
2022/01/08 02:15:54;;;;;;;;;;;;;;;;;;5134676;28;19923;-74
2022/01/08 02:18:25;;;;;;;;;;;;;;;;;;5134512;27;19915;-74
2022/01/08 02:20:51;;;;;;;;;;;;;;;;;;5135067;28;20284;-74
2022/01/08 02:23:17;;;;;;;;;;;;;;;;;;5134268;28;19927;-74
2022/01/08 02:25:42;;;;;;;;;;;;;;;;;;5134585;28;20331;-74
2022/01/08 02:28:07;;;;;;;;;;;;;;;;;;5134381;27;19968;-74
2022/01/08 02:30:33;;;;;;;;;;;;;;;;;;5134531;28;19919;-74
2022/01/08 02:32:58;;;;;;;;;;;;;;;;;;5133931;28;20257;-74
2022/01/08 02:35:24;;;;;;;;;;;;;;;;;;5134132;28;19960;-74
2022/01/08 02:37:50;;;;;;;;;;;;;;;;;;5116007;28;19951;-74
2022/01/08 02:40:17;;;;;;;;;;;;;;;;;;5134551;28;19963;-74
2022/01/08 02:42:51;;;;;;;;;;;;;;;;;;5136706;27;19939;-74
2022/01/08 02:45:17;;;;;;;;;;;;;;;;;;5120108;27;19927;-74
2022/01/08 02:47:43;;;;;;;;;;;;;;;;;;5138027;27;20321;-74
2022/01/08 02:50:08;;;;;;;;;;;;;;;;;;5138357;27;19926;-74
2022/01/08 02:52:33;;;;;;;;;;;;;;;;;;5102726;27;19915;-74
2022/01/08 02:54:59;;;;;;;;;;;;;;;;;;5138431;27;19968;-74
2022/01/08 02:57:24;;;;;;;;;;;;;;;;;;5138005;27;20409;-74
2022/01/08 02:59:49;;;;;;;;;;;;;;;;;;5119820;27;19956;-74
2022/01/08 03:02:15;;;;;;;;;;;;;;;;;;5137716;27;19959;-74
2022/01/08 03:04:40;;;;;;;;;;;;;;;;;;5119827;27;19927;-74
2022/01/08 03:07:05;;;;;;;;;;;;;;;;;;5138021;27;19919;-74
2022/01/08 03:09:35;;;;;;;;;;;;;;;;;;5137948;27;19920;-74
2022/01/08 03:12:00;;;;;;;;;;;;;;;;;;5138072;27;19919;-74
2022/01/08 03:14:25;;;;;;;;;;;;;;;;;;5119585;27;19915;-74
2022/01/08 03:16:50;;;;;;;;;;;;;;;;;;5137820;27;19915;-74
2022/01/08 03:19:16;;;;;;;;;;;;;;;;;;5137750;27;19919;-74
2022/01/08 03:21:43;;;;;;;;;;;;;;;;;;5137592;27;19922;-74
2022/01/08 03:24:14;;;;;;;;;;;;;;;;;;5137520;27;19916;-74
2022/01/08 03:26:39;;;;;;;;;;;;;;;;;;5137489;27;19920;-74
2022/01/08 03:29:04;;;;;;;;;;;;;;;;;;5137570;27;19925;-74
2022/01/08 03:31:30;;;;;;;;;;;;;;;;;;5119119;27;20274;-74
2022/01/08 03:33:55;;;;;;;;;;;;;;;;;;5118428;27;20432;-74
2022/01/08 03:36:22;;;;;;;;;;;;;;;;;;5137405;27;19920;-74
2022/01/08 03:38:47;;;;;;;;;;;;;;;;;;5137454;27;20017;-74
2022/01/08 03:41:13;;;;;;;;;;;;;;;;;;5137126;27;20002;-74
2022/01/08 03:43:38;;;;;;;;;;;;;;;;;;5137264;27;19918;-74
2022/01/08 03:46:04;;;;;;;;;;;;;;;;;;5137398;27;19915;-74
2022/01/08 03:51:04;;;;;;;;;;;;;;;;;;5137025;27;19919;-74
2022/01/08 03:53:30;;;;;;;;;;;;;;;;;;5136194;27;19922;-74
2022/01/08 03:55:55;;;;;;;;;;;;;;;;;;5136955;27;19915;-74
2022/01/08 03:58:20;;;;;;;;;;;;;;;;;;5137051;27;19916;-74
2022/01/08 04:00:47;;;;;;;;;;;;;;;;;;5137111;27;19919;-74
2022/01/08 04:03:12;;;;;;;;;;;;;;;;;;5136956;27;19998;-74
2022/01/08 04:05:38;;;;;;;;;;;;;;;;;;5136470;27;19961;-74
2022/01/08 04:08:04;;;;;;;;;;;;;;;;;;5136728;27;19915;-74
2022/01/08 04:10:29;;;;;;;;;;;;;;;;;;5136889;27;20359;-74
2022/01/08 04:12:58;;;;;;;;;;;;;;;;;;5136842;27;19919;-74
2022/01/08 04:17:53;;;;;;;;;;;;;;;;;;5136578;27;19915;-74
2022/01/08 04:20:19;;;;;;;;;;;;;;;;;;5118288;27;19981;-74
2022/01/08 04:22:47;;;;;;;;;;;;;;;;;;5118038;27;19915;-74
2022/01/08 04:25:13;;;;;;;;;;;;;;;;;;5101119;27;19919;-74
2022/01/08 04:27:39;;;;;;;;;;;;;;;;;;5136388;27;19936;-74
2022/01/08 04:30:04;;;;;;;;;;;;;;;;;;5136279;27;19915;-74
2022/01/08 04:32:30;;;;;;;;;;;;;;;;;;5136395;27;19975;-74
2022/01/08 04:34:55;;;;;;;;;;;;;;;;;;5136046;27;19923;-74
2022/01/08 04:37:21;;;;;;;;;;;;;;;;;;5135906;27;19915;-74
2022/01/08 04:39:46;;;;;;;;;;;;;;;;;;5136083;27;19915;-74
2022/01/08 04:42:11;;;;;;;;;;;;;;;;;;5135832;27;20014;-74
2022/01/08 04:44:36;;;;;;;;;;;;;;;;;;5136137;27;19938;-74
2022/01/08 04:47:02;;;;;;;;;;;;;;;;;;5113780;28;19922;-74
2022/01/08 04:49:27;;;;;;;;;;;;;;;;;;5115339;28;19920;-74
2022/01/08 04:51:54;;;;;;;;;;;;;;;;;;5115478;28;19947;-74
2022/01/08 04:54:19;;;;;;;;;;;;;;;;;;5115457;28;19961;-74
2022/01/08 04:56:45;;;;;;;;;;;;;;;;;;5115289;27;19916;-74
2022/01/08 04:59:10;;;;;;;;;;;;;;;;;;5096735;28;19969;-74
2022/01/08 05:01:35;;;;;;;;;;;;;;;;;;5114956;28;19916;-74
2022/01/08 05:04:02;;;;;;;;;;;;;;;;;;5114645;28;19915;-74
2022/01/08 05:06:27;;;;;;;;;;;;;;;;;;5093610;28;19923;-74
2022/01/08 05:08:52;;;;;;;;;;;;;;;;;;5094531;28;20295;-74
2022/01/08 05:11:17;;;;;;;;;;;;;;;;;;5094824;28;20014;-75
2022/01/08 05:13:44;;;;;;;;;;;;;;;;;;5094816;28;19923;-74
2022/01/08 05:16:10;;;;;;;;;;;;;;;;;;5093183;28;19923;-74
2022/01/08 05:18:35;;;;;;;;;;;;;;;;;;5094390;28;19916;-74
2022/01/08 05:21:18;;;;;;;;;;;;;;;;;;5094266;28;19977;-74
2022/01/08 05:23:43;;;;;;;;;;;;;;;;;;5094580;28;20012;-74
2022/01/08 05:26:09;;;;;;;;;;;;;;;;;;5094279;28;19940;-74
2022/01/08 05:28:34;;;;;;;;;;;;;;;;;;5094804;28;20318;-74
2022/01/08 05:30:59;;;;;;;;;;;;;;;;;;5094639;28;19924;-74
2022/01/08 05:33:25;;;;;;;;;;;;;;;;;;5094250;28;19961;-74
2022/01/08 05:35:50;;;;;;;;;;;;;;;;;;5109541;28;20003;-74
2022/01/08 05:38:15;;;;;;;;;;;;;;;;;;5114713;28;19916;-74
2022/01/08 05:40:42;;;;;;;;;;;;;;;;;;5114017;28;20010;-74
2022/01/08 05:43:07;;;;;;;;;;;;;;;;;;5114608;28;19919;-74
2022/01/08 05:45:32;;;;;;;;;;;;;;;;;;5114245;28;19922;-74
2022/01/08 05:47:57;;;;;;;;;;;;;;;;;;5113066;28;19920;-74
2022/01/08 05:50:23;;;;;;;;;;;;;;;;;;5114443;28;20364;-74
2022/01/08 05:52:48;;;;;;;;;;;;;;;;;;5113119;28;19916;-74
2022/01/08 05:55:14;;;;;;;;;;;;;;;;;;5112884;28;19968;-74
2022/01/08 05:57:39;;;;;;;;;;;;;;;;;;5114227;28;19916;-75
2022/01/08 06:00:07;;;;;;;;;;;;;;;;;;5113776;28;19923;-74
2022/01/08 06:02:35;;;;;;;;;;;;;;;;;;5114028;28;19916;-75
2022/01/08 06:05:01;;;;;;;;;;;;;;;;;;5114354;28;19939;-74
2022/01/08 06:07:26;;;;;;;;;;;;;;;;;;5113999;28;19920;-75
2022/01/08 06:09:51;;;;;;;;;;;;;;;;;;5114319;28;19919;-74
2022/01/08 06:12:17;;;;;;;;;;;;;;;;;;5112459;28;19919;-74
2022/01/08 06:14:42;;;;;;;;;;;;;;;;;;5114553;28;19972;-74
2022/01/08 06:17:08;;;;;;;;;;;;;;;;;;5115410;28;19915;-75
2022/01/08 06:19:33;;;;;;;;;;;;;;;;;;5118411;28;19916;-75
2022/01/08 06:21:59;;;;;;;;;;;;;;;;;;5118454;28;19968;-75
2022/01/08 06:24:24;;;;;;;;;;;;;;;;;;5118409;27;19916;-74
2022/01/08 06:26:49;;;;;;;;;;;;;;;;;;5118238;28;19922;-75
2022/01/08 06:29:15;;;;;;;;;;;;;;;;;;5118090;28;19924;-75
2022/01/08 06:31:40;;;;;;;;;;;;;;;;;;5118184;28;19971;-75
2022/01/08 06:34:05;;;;;;;;;;;;;;;;;;5118227;28;19916;-75
2022/01/08 06:36:31;;;;;;;;;;;;;;;;;;5117841;28;19915;-75
2022/01/08 06:38:56;;;;;;;;;;;;;;;;;;5116889;28;19934;-75
2022/01/08 06:41:21;;;;;;;;;;;;;;;;;;5117808;28;19915;-75
2022/01/08 06:43:47;;;;;;;;;;;;;;;;;;5118058;28;19920;-75
2022/01/08 06:46:12;;;;;;;;;;;;;;;;;;5116777;28;19930;-75
2022/01/08 06:48:38;;;;;;;;;;;;;;;;;;5135246;27;19941;-75
2022/01/08 06:51:03;;;;;;;;;;;;;;;;;;5138395;27;20436;-74
2022/01/08 06:53:28;;;;;;;;;;;;;;;;;;5138391;27;20381;-75
2022/01/08 06:55:54;;;;;;;;;;;;;;;;;;5138201;27;19939;-75
2022/01/08 06:58:20;;;;;;;;;;;;;;;;;;5137964;27;19922;-75
2022/01/08 07:00:46;;;;;;;;;;;;;;;;;;5137641;27;19954;-74
2022/01/08 07:03:11;;;;;;;;;;;;;;;;;;5138082;27;19962;-75
2022/01/08 07:05:37;;;;;;;;;;;;;;;;;;5137938;27;19926;-76
2022/01/08 07:08:02;;;;;;;;;;;;;;;;;;5137764;27;19915;-75
2022/01/08 07:10:27;;;;;;;;;;;;;;;;;;5137473;27;20430;-75
2022/01/08 07:12:53;;;;;;;;;;;;;;;;;;5135893;27;19919;-75
2022/01/08 07:15:18;;;;;;;;;;;;;;;;;;5117345;27;19915;-74
2022/01/08 07:17:43;;;;;;;;;;;;;;;;;;5136295;27;20288;-75
2022/01/08 07:20:09;;;;;;;;;;;;;;;;;;5136498;27;19916;-75
2022/01/08 07:22:35;;;;;;;;;;;;;;;;;;5136314;27;19915;-74
2022/01/08 07:25:03;;;;;;;;;;;;;;;;;;5136372;27;19919;-74
2022/01/08 07:27:30;;;;;;;;;;;;;;;;;;5137186;27;19960;-73
2022/01/08 07:29:55;;;;;;;;;;;;;;;;;;5136541;27;20014;-74
2022/01/08 07:32:20;;;;;;;;;;;;;;;;;;5137364;27;19973;-74
2022/01/08 07:34:46;;;;;;;;;;;;;;;;;;5137493;27;19919;-75
2022/01/08 07:37:11;;;;;;;;;;;;;;;;;;5137369;27;19929;-75
2022/01/08 07:39:37;;;;;;;;;;;;;;;;;;5137492;27;19923;-75
2022/01/08 07:42:02;;;;;;;;;;;;;;;;;;5137411;27;19960;-74
2022/01/08 07:44:28;;;;;;;;;;;;;;;;;;5137425;27;19920;-74
2022/01/08 07:46:53;;;;;;;;;;;;;;;;;;5136283;27;20345;-75
2022/01/08 07:49:18;;;;;;;;;;;;;;;;;;5137235;27;19920;-74
2022/01/08 07:51:44;;;;;;;;;;;;;;;;;;5118920;27;19915;-74
2022/01/08 07:54:09;;;;;;;;;;;;;;;;;;5137135;27;19951;-74
2022/01/08 07:56:36;;;;;;;;;;;;;;;;;;5137135;27;19915;-74
2022/01/08 07:59:01;;;;;;;;;;;;;;;;;;5137044;27;19950;-74
2022/01/08 08:01:26;;;;;;;;;;;;;;;;;;5135998;27;19965;-74
2022/01/08 08:03:52;;;;;;;;;;;;;;;;;;5137314;27;19915;-74
2022/01/08 08:06:17;;;;;;;;;;;;;;;;;;5136923;27;19923;-74
2022/01/08 08:08:44;;;;;;;;;;;;;;;;;;5136665;27;20372;-74
2022/01/08 08:11:10;;;;;;;;;;;;;;;;;;5136996;27;19915;-74
2022/01/08 08:13:35;;;;;;;;;;;;;;;;;;5136827;27;19916;-74
2022/01/08 08:16:00;;;;;;;;;;;;;;;;;;5136761;27;20009;-74
2022/01/08 08:18:26;;;;;;;;;;;;;;;;;;5136414;27;20260;-74
2022/01/08 08:20:52;;;;;;;;;;;;;;;;;;5136640;27;19915;-76
2022/01/08 08:23:17;;;;;;;;;;;;;;;;;;5136648;27;19915;-74
2022/01/08 08:25:42;;;;;;;;;;;;;;;;;;5117751;27;19915;-75
2022/01/08 08:28:07;;;;;;;;;;;;;;;;;;5136407;27;19961;-75
2022/01/08 08:30:33;;;;;;;;;;;;;;;;;;5136096;27;19927;-76
2022/01/08 08:32:59;;;;;;;;;;;;;;;;;;5136206;27;19915;-75
2022/01/08 08:35:24;;;;;;;;;;;;;;;;;;5135957;27;19980;-75
2022/01/08 08:37:50;;;;;;;;;;;;;;;;;;5135166;27;20010;-75
2022/01/08 08:40:15;;;;;;;;;;;;;;;;;;5135624;27;20276;-76
2022/01/08 08:42:41;;;;;;;;;;;;;;;;;;5136158;27;19966;-76
2022/01/08 08:45:06;;;;;;;;;;;;;;;;;;5136239;27;19938;-76
2022/01/08 08:47:32;;;;;;;;;;;;;;;;;;5132426;27;19920;-75
2022/01/08 08:50:01;;;;;;;;;;;;;;;;;;5123873;27;19974;-76
2022/01/08 08:52:26;;;;;;;;;;;;;;;;;;5122719;27;19922;-75
2022/01/08 08:54:52;;;;;;;;;;;;;;;;;;5127348;27;20292;-76
2022/01/08 08:57:17;;;;;;;;;;;;;;;;;;5125107;27;20376;-74
2022/01/08 08:59:42;;;;;;;;;;;;;;;;;;5115252;28;19916;-75
2022/01/08 09:02:08;;;;;;;;;;;;;;;;;;5118632;27;19923;-74
2022/01/08 09:04:33;;;;;;;;;;;;;;;;;;5136171;27;19915;-73
2022/01/08 09:06:58;;;;;;;;;;;;;;;;;;5135776;27;19916;-74
2022/01/08 09:09:24;;;;;;;;;;;;;;;;;;5135592;27;19962;-74
2022/01/08 09:11:49;;;;;;;;;;;;;;;;;;5135401;27;19916;-74
2022/01/08 09:14:15;;;;;;;;;;;;;;;;;;5135624;27;20010;-74
2022/01/08 09:16:44;;;;;;;;;;;;;;;;;;5133645;27;19919;-74
2022/01/08 09:19:10;;;;;;;;;;;;;;;;;;5133328;27;19916;-74
2022/01/08 09:21:35;;;;;;;;;;;;;;;;;;5134597;27;19930;-73
2022/01/08 09:24:00;;;;;;;;;;;;;;;;;;5135455;27;19916;-74
2022/01/08 09:26:26;;;;;;;;;;;;;;;;;;5135378;27;20261;-74
2022/01/08 09:28:51;;;;;;;;;;;;;;;;;;5135331;27;19958;-74
2022/01/08 09:31:18;;;;;;;;;;;;;;;;;;5134489;27;19955;-74
2022/01/08 09:33:44;;;;;;;;;;;;;;;;;;5133015;27;19915;-74
2022/01/08 09:36:09;;;;;;;;;;;;;;;;;;5132763;27;19922;-74
2022/01/08 09:38:34;;;;;;;;;;;;;;;;;;5133048;27;19916;-74
2022/01/08 09:40:59;;;;;;;;;;;;;;;;;;5134076;27;19971;-74
2022/01/08 09:43:25;;;;;;;;;;;;;;;;;;5134081;27;19919;-74
2022/01/08 09:45:51;;;;;;;;;;;;;;;;;;5134030;27;19911;-74
2022/01/08 09:48:16;;;;;;;;;;;;;;;;;;5134537;27;19927;-74
2022/01/08 09:50:43;;;;;;;;;;;;;;;;;;5134988;27;19927;-74
2022/01/08 09:53:08;;;;;;;;;;;;;;;;;;5133726;27;20015;-74
2022/01/08 09:55:34;;;;;;;;;;;;;;;;;;5134292;27;19961;-74
2022/01/08 09:57:59;;;;;;;;;;;;;;;;;;5134665;27;19916;-74
2022/01/08 10:00:25;;;;;;;;;;;;;;;;;;5134469;27;19919;-74
2022/01/08 10:02:51;;;;;;;;;;;;;;;;;;5134549;27;19915;-73
2022/01/08 10:05:17;;;;;;;;;;;;;;;;;;5134701;27;19922;-73
2022/01/08 10:07:43;;;;;;;;;;;;;;;;;;5134764;27;19915;-74
2022/01/08 10:10:12;;;;;;;;;;;;;;;;;;5134616;28;19919;-74
2022/01/08 10:12:43;;;;;;;;;;;;;;;;;;5134883;28;19920;-74
2022/01/08 10:17:53;;;;;;;;;;;;;;;;;;5134697;27;19919;-74
2022/01/08 10:20:38;;;;;;;;;;;;;;;;;;5134585;28;19916;-75
2022/01/08 10:23:11;;;;;;;;;;;;;;;;;;5116292;28;19916;-75
2022/01/08 10:25:36;;;;;;;;;;;;;;;;;;5134523;28;20402;-74
2022/01/08 10:28:01;;;;;;;;;;;;;;;;;;5134531;27;19919;-74
2022/01/08 10:30:27;;;;;;;;;;;;;;;;;;5134204;28;19923;-74
2022/01/08 10:32:56;;;;;;;;;;;;;;;;;;5134395;28;19967;-74
2022/01/08 10:35:41;;;;;;;;;;;;;;;;;;5133908;28;19950;-74
2022/01/08 10:38:08;;;;;;;;;;;;;;;;;;5134251;27;20443;-75
2022/01/08 10:40:33;;;;;;;;;;;;;;;;;;5134308;28;19915;-75
2022/01/08 10:42:59;;;;;;;;;;;;;;;;;;5134632;28;19976;-75
2022/01/08 10:45:25;;;;;;;;;;;;;;;;;;5134217;28;19919;-75
2022/01/08 10:48:02;;;;;;;;;;;;;;;;;;5134254;27;19926;-73
2022/01/08 10:50:27;;;;;;;;;;;;;;;;;;5134197;28;19924;-75
2022/01/08 10:52:53;;;;;;;;;;;;;;;;;;5134382;28;20006;-75
2022/01/08 10:55:31;;;;;;;;;;;;;;;;;;5134258;28;20014;-75
2022/01/08 10:57:56;;;;;;;;;;;;;;;;;;5134256;27;20349;-73
2022/01/08 11:00:28;;;;;;;;;;;;;;;;;;5133518;28;19915;-73
2022/01/08 11:02:54;;;;;;;;;;;;;;;;;;5129022;27;19928;-77
2022/01/08 11:05:19;;;;;;;;;;;;;;;;;;5129566;27;20277;-75
2022/01/08 11:07:45;;;;;;;;;;;;;;;;;;5126682;27;19938;-76
2022/01/08 11:10:16;;;;;;;;;;;;;;;;;;5126788;27;20365;-75
2022/01/08 11:12:44;;;;;;;;;;;;;;;;;;5125824;27;19920;-74
2022/01/08 11:17:42;;;;;;;;;;;;;;;;;;5131638;27;19969;-75
2022/01/08 11:20:07;;;;;;;;;;;;;;;;;;5137653;27;19919;-76
2022/01/08 11:22:35;;;;;;;;;;;;;;;;;;5137798;27;19967;-75
2022/01/08 11:25:03;;;;;;;;;;;;;;;;;;5132434;27;19927;-76
2022/01/08 11:27:43;;;;;;;;;;;;;;;;;;5082261;28;19937;-74
2022/01/08 11:30:08;;;;;;;;;;;;;;;;;;5127229;27;20431;-74
2022/01/08 11:32:34;;;;;;;;;;;;;;;;;;5119129;27;19969;-74
2022/01/08 11:35:00;;;;;;;;;;;;;;;;;;5137473;27;19985;-73
2022/01/08 11:37:25;;;;;;;;;;;;;;;;;;5135948;27;19920;-74
2022/01/08 11:39:52;;;;;;;;;;;;;;;;;;5137408;27;20391;-74
2022/01/08 11:42:21;;;;;;;;;;;;;;;;;;5137234;27;19923;-74
2022/01/08 11:44:48;;;;;;;;;;;;;;;;;;5137203;27;19931;-75
2022/01/08 11:47:13;;;;;;;;;;;;;;;;;;5137140;27;20280;-76
2022/01/08 11:49:41;;;;;;;;;;;;;;;;;;5137289;27;19919;-75
2022/01/08 11:52:19;;;;;;;;;;;;;;;;;;5137244;27;20276;-74
2022/01/08 11:54:45;;;;;;;;;;;;;;;;;;5136797;27;20380;-73
2022/01/08 11:57:22;;;;;;;;;;;;;;;;;;5118429;27;19922;-73
2022/01/08 11:59:48;;;;;;;;;;;;;;;;;;5136423;27;19962;-73
2022/01/08 12:02:13;;;;;;;;;;;;;;;;;;5118170;27;20328;-75
2022/01/08 12:04:41;;;;;;;;;;;;;;;;;;5137091;27;20372;-74
2022/01/08 12:07:25;;;;;;;;;;;;;;;;;;5136290;27;19915;-75
2022/01/08 12:10:02;;;;;;;;;;;;;;;;;;5136858;27;19985;-73
2022/01/08 12:12:43;;;;;;;;;;;;;;;;;;5137018;27;19919;-75
2022/01/08 12:15:08;;;;;;;;;;;;;;;;;;5136435;27;19915;-75
2022/01/08 12:17:50;;;;;;;;;;;;;;;;;;5118423;27;19915;-74
2022/01/08 12:20:35;;;;;;;;;;;;;;;;;;5136580;27;20267;-74
2022/01/08 12:23:19;;;;;;;;;;;;;;;;;;5136536;27;19922;-74
2022/01/08 12:25:45;;;;;;;;;;;;;;;;;;5136688;27;20379;-74
2022/01/08 12:28:30;;;;;;;;;;;;;;;;;;5118047;27;20001;-75
2022/01/08 12:31:15;;;;;;;;;;;;;;;;;;5135597;27;20287;-74
2022/01/08 12:33:41;;;;;;;;;;;;;;;;;;5136146;27;19926;-74
2022/01/08 12:36:28;;;;;;;;;;;;;;;;;;5117877;27;20379;-74
2022/01/08 12:39:00;;;;;;;;;;;;;;;;;;5136220;27;19915;-74
2022/01/08 12:41:25;;;;;;;;;;;;;;;;;;5136472;27;19959;-74
2022/01/08 12:43:51;;;;;;;;;;;;;;;;;;5136307;27;19916;-74
2022/01/08 12:46:18;;;;;;;;;;;;;;;;;;5135912;27;19933;-74
2022/01/08 12:49:01;;;;;;;;;;;;;;;;;;5135881;27;19926;-74
2022/01/08 12:51:40;;;;;;;;;;;;;;;;;;5136195;27;20014;-74
2022/01/08 12:54:05;;;;;;;;;;;;;;;;;;5136127;27;19916;-74
2022/01/08 12:56:30;;;;;;;;;;;;;;;;;;5135886;27;19923;-74
2022/01/08 12:58:56;;;;;;;;;;;;;;;;;;5135796;27;19915;-74
2022/01/08 13:01:22;;;;;;;;;;;;;;;;;;5135696;27;19916;-74
2022/01/08 13:03:49;;;;;;;;;;;;;;;;;;5135098;27;20384;-75
2022/01/08 13:06:14;;;;;;;;;;;;;;;;;;5135817;27;19960;-74
2022/01/08 13:08:43;;;;;;;;;;;;;;;;;;5135628;27;19919;-74
2022/01/08 13:11:10;;;;;;;;;;;;;;;;;;5117239;27;19980;-74
2022/01/08 13:13:43;;;;;;;;;;;;;;;;;;5135563;27;19919;-73
2022/01/08 13:16:14;;;;;;;;;;;;;;;;;;5135636;27;19915;-75
2022/01/08 13:18:39;;;;;;;;;;;;;;;;;;5135604;27;20424;-75
2022/01/08 13:21:05;;;;;;;;;;;;;;;;;;5134793;27;20014;-76
2022/01/08 13:23:31;;;;;;;;;;;;;;;;;;5135415;27;20361;-76
2022/01/08 13:25:57;;;;;;;;;;;;;;;;;;5134712;27;19922;-76
2022/01/08 13:28:23;;;;;;;;;;;;;;;;;;5134992;27;19915;-76
2022/01/08 13:30:49;;;;;;;;;;;;;;;;;;5135242;27;19922;-74
2022/01/08 13:33:21;;;;;;;;;;;;;;;;;;5135199;27;19919;-74
2022/01/08 13:35:46;;;;;;;;;;;;;;;;;;5134613;27;19922;-74
2022/01/08 13:38:26;;;;;;;;;;;;;;;;;;5134960;27;20013;-74
2022/01/08 13:40:51;;;;;;;;;;;;;;;;;;5135112;27;19915;-74
2022/01/08 13:43:16;;;;;;;;;;;;;;;;;;5135075;27;19920;-73
2022/01/08 13:45:50;;;;;;;;;;;;;;;;;;5134984;27;20380;-73
2022/01/08 13:48:18;;;;;;;;;;;;;;;;;;5134856;27;19919;-74
2022/01/08 13:50:48;;;;;;;;;;;;;;;;;;5134753;27;19951;-74
2022/01/08 13:53:14;;;;;;;;;;;;;;;;;;5135046;27;20371;-74
2022/01/08 13:55:44;;;;;;;;;;;;;;;;;;5134486;27;19915;-74
2022/01/08 13:58:14;;;;;;;;;;;;;;;;;;5134788;27;20006;-73
2022/01/08 14:00:41;;;;;;;;;;;;;;;;;;5134332;27;19915;-73
2022/01/08 14:03:16;;;;;;;;;;;;;;;;;;5134664;27;19915;-74
2022/01/08 14:05:41;;;;;;;;;;;;;;;;;;5134671;27;19926;-74
2022/01/08 14:08:07;;;;;;;;;;;;;;;;;;5134818;27;19920;-74
2022/01/08 14:10:41;;;;;;;;;;;;;;;;;;5134428;28;19945;-73
2022/01/08 14:13:08;;;;;;;;;;;;;;;;;;5134667;28;19938;-73
2022/01/08 14:15:33;;;;;;;;;;;;;;;;;;5115849;28;19919;-73
2022/01/08 14:18:08;;;;;;;;;;;;;;;;;;5134350;27;20321;-73
2022/01/08 14:20:34;;;;;;;;;;;;;;;;;;5134650;28;19915;-73
2022/01/08 14:23:11;;;;;;;;;;;;;;;;;;5134662;28;20017;-73
2022/01/08 14:25:37;;;;;;;;;;;;;;;;;;5134473;28;20370;-73
2022/01/08 14:28:18;;;;;;;;;;;;;;;;;;5134535;27;19923;-73
2022/01/08 14:30:43;;;;;;;;;;;;;;;;;;5115730;28;19920;-73
2022/01/08 14:33:08;;;;;;;;;;;;;;;;;;5133822;28;20052;-73
2022/01/08 14:35:34;;;;;;;;;;;;;;;;;;5116205;28;19915;-73
2022/01/08 14:38:02;;;;;;;;;;;;;;;;;;5135496;27;19922;-73
2022/01/08 14:40:29;;;;;;;;;;;;;;;;;;5138626;27;20007;-73
2022/01/08 14:43:05;;;;;;;;;;;;;;;;;;5138625;27;19956;-73
2022/01/08 14:45:31;;;;;;;;;;;;;;;;;;5138444;27;20364;-73
2022/01/08 14:47:58;;;;;;;;;;;;;;;;;;5138407;27;19952;-73
2022/01/08 14:50:30;;;;;;;;;;;;;;;;;;5120036;27;19926;-73
2022/01/08 14:52:56;;;;;;;;;;;;;;;;;;5138295;27;19915;-73
2022/01/08 14:55:30;;;;;;;;;;;;;;;;;;5138243;27;20319;-73
2022/01/08 14:57:55;;;;;;;;;;;;;;;;;;5138396;27;19923;-73
2022/01/08 15:00:21;;;;;;;;;;;;;;;;;;5137988;27;19919;-73
2022/01/08 15:02:46;;;;;;;;;;;;;;;;;;5138267;27;19962;-72
2022/01/08 15:05:12;;;;;;;;;;;;;;;;;;5137956;27;19968;-73
2022/01/08 15:07:38;;;;;;;;;;;;;;;;;;5138135;27;19964;-73
2022/01/08 15:10:04;;;;;;;;;;;;;;;;;;5137569;27;20380;-73
2022/01/08 15:12:29;;;;;;;;;;;;;;;;;;5137946;27;19915;-73
2022/01/08 15:14:55;;;;;;;;;;;;;;;;;;5137908;27;19958;-73
2022/01/08 15:17:20;;;;;;;;;;;;;;;;;;5137131;27;19967;-73
2022/01/08 15:19:45;;;;;;;;;;;;;;;;;;5137987;27;19953;-73
2022/01/08 15:22:11;;;;;;;;;;;;;;;;;;5137782;27;20291;-73
2022/01/08 15:24:36;;;;;;;;;;;;;;;;;;5137666;27;19976;-73
2022/01/08 15:27:02;;;;;;;;;;;;;;;;;;5137378;27;19908;-73
2022/01/08 15:29:27;;;;;;;;;;;;;;;;;;5119090;27;19930;-73
2022/01/08 15:31:54;;;;;;;;;;;;;;;;;;5137686;27;19922;-75
2022/01/08 15:34:20;;;;;;;;;;;;;;;;;;5137111;27;19915;-72
2022/01/08 15:36:45;;;;;;;;;;;;;;;;;;5137509;27;19960;-72
2022/01/08 15:39:11;;;;;;;;;;;;;;;;;;5137723;27;19923;-72
2022/01/08 15:41:37;;;;;;;;;;;;;;;;;;5119099;27;20546;-72
2022/01/08 15:44:03;;;;;;;;;;;;;;;;;;5137319;27;19922;-73
2022/01/08 15:46:28;;;;;;;;;;;;;;;;;;5137142;27;19943;-73
2022/01/08 15:48:54;;;;;;;;;;;;;;;;;;5136248;27;20369;-72
2022/01/08 15:51:19;;;;;;;;;;;;;;;;;;5136653;27;19927;-72
2022/01/08 15:53:44;;;;;;;;;;;;;;;;;;5117135;27;19919;-72
2022/01/08 15:56:12;;;;;;;;;;;;;;;;;;5137012;27;19915;-72
2022/01/08 15:58:37;;;;;;;;;;;;;;;;;;5137104;27;19926;-72
2022/01/08 16:01:04;;;;;;;;;;;;;;;;;;5136657;27;20002;-72
2022/01/08 16:03:30;;;;;;;;;;;;;;;;;;5137135;27;19919;-72
2022/01/08 16:05:55;;;;;;;;;;;;;;;;;;5118668;27;19922;-72
2022/01/08 16:08:22;;;;;;;;;;;;;;;;;;5136852;27;20033;-73
2022/01/08 16:10:47;;;;;;;;;;;;;;;;;;5136967;27;19964;-73
2022/01/08 16:13:17;;;;;;;;;;;;;;;;;;5136799;27;19919;-73
2022/01/08 16:15:43;;;;;;;;;;;;;;;;;;5136985;27;20349;-73
2022/01/08 16:18:08;;;;;;;;;;;;;;;;;;5136894;27;19969;-73
2022/01/08 16:20:35;;;;;;;;;;;;;;;;;;5118505;27;20265;-74
2022/01/08 16:23:01;;;;;;;;;;;;;;;;;;5136579;27;19915;-73
2022/01/08 16:25:26;;;;;;;;;;;;;;;;;;5136405;27;19915;-74
2022/01/08 16:27:51;;;;;;;;;;;;;;;;;;5136366;27;19921;-73
2022/01/08 16:30:20;;;;;;;;;;;;;;;;;;5136449;27;19919;-73
2022/01/08 16:32:45;;;;;;;;;;;;;;;;;;5136275;27;19920;-74
2022/01/08 16:35:10;;;;;;;;;;;;;;;;;;5136407;27;19968;-74
2022/01/08 16:37:36;;;;;;;;;;;;;;;;;;5136291;27;19922;-73
2022/01/08 16:40:01;;;;;;;;;;;;;;;;;;5136319;27;20301;-73
2022/01/08 16:42:28;;;;;;;;;;;;;;;;;;5136216;27;19926;-73
2022/01/08 16:44:53;;;;;;;;;;;;;;;;;;5136420;27;20006;-74
2022/01/08 16:47:19;;;;;;;;;;;;;;;;;;5135050;27;20000;-73
2022/01/08 16:49:44;;;;;;;;;;;;;;;;;;5136124;27;19919;-75
2022/01/08 16:52:10;;;;;;;;;;;;;;;;;;5126932;27;20325;-76
2022/01/08 16:54:36;;;;;;;;;;;;;;;;;;5125802;27;19916;-75
2022/01/08 16:57:01;;;;;;;;;;;;;;;;;;5125352;27;20258;-75
2022/01/08 16:59:27;;;;;;;;;;;;;;;;;;5124089;27;20411;-75
2022/01/08 17:01:53;;;;;;;;;;;;;;;;;;5125739;27;19920;-74
2022/01/08 17:04:18;;;;;;;;;;;;;;;;;;5125145;27;19981;-75
2022/01/08 17:06:43;;;;;;;;;;;;;;;;;;5124355;27;20288;-75
2022/01/08 17:09:09;;;;;;;;;;;;;;;;;;5126139;27;19929;-73
2022/01/08 17:11:34;;;;;;;;;;;;;;;;;;5105995;27;19954;-73